createdAt,value
2023-05-05T00:00:34.572Z,11.3
2023-05-05T00:01:40.732Z,11.3
2023-05-05T00:02:44.786Z,11.3
2023-05-05T00:03:51.572Z,11.3
2023-05-05T00:04:53.029Z,11.2
2023-05-05T00:05:59.304Z,11.2
2023-05-05T00:07:00.592Z,11.2
2023-05-05T00:08:04.343Z,11.2
2023-05-05T00:09:07.974Z,11.2
2023-05-05T00:10:16.564Z,11.2
2023-05-05T00:11:17.792Z,11.1
2023-05-05T00:12:22.100Z,11.1
2023-05-05T00:13:25.437Z,11.1
2023-05-05T00:14:29.555Z,11.1
2023-05-05T00:15:30.783Z,11.1
2023-05-05T00:16:34.779Z,11.1
2023-05-05T00:17:41.167Z,11.1
2023-05-05T00:18:45.568Z,11.1
2023-05-05T00:19:46.758Z,11
2023-05-05T00:20:50.803Z,11
2023-05-05T00:21:51.975Z,11
2023-05-05T00:22:53.253Z,11
2023-05-05T00:23:57.166Z,11
2023-05-05T00:25:00.731Z,11
2023-05-05T00:26:22.145Z,10.9
2023-05-05T00:27:25.496Z,10.9
2023-05-05T00:28:29.624Z,10.9
2023-05-05T00:29:33.818Z,10.9
2023-05-05T00:30:45.951Z,10.9
2023-05-05T00:31:47.251Z,10.9
2023-05-05T00:32:48.575Z,10.8
2023-05-05T00:33:55.508Z,10.8
2023-05-05T00:35:17.114Z,10.8
2023-05-05T00:36:18.526Z,10.8
2023-05-05T00:37:19.737Z,10.8
2023-05-05T00:38:24.022Z,10.8
2023-05-05T00:39:25.199Z,10.7
2023-05-05T00:40:26.362Z,10.7
2023-05-05T00:41:39.621Z,10.7
2023-05-05T00:42:49.097Z,10.7
2023-05-05T00:43:53.143Z,10.7
2023-05-05T00:44:57.211Z,10.7
2023-05-05T00:46:01.087Z,10.7
2023-05-05T00:47:02.414Z,10.6
2023-05-05T00:48:09.282Z,10.6
2023-05-05T00:49:13.687Z,10.6
2023-05-05T00:50:17.360Z,10.6
2023-05-05T00:51:23.598Z,10.6
2023-05-05T00:52:24.784Z,10.6
2023-05-05T00:53:28.156Z,10.6
2023-05-05T00:54:29.289Z,10.5
2023-05-05T00:55:42.037Z,10.5
2023-05-05T00:56:51.171Z,10.5
2023-05-05T00:57:54.622Z,10.5
2023-05-05T00:58:55.834Z,10.5
2023-05-05T01:00:00.037Z,10.5
2023-05-05T01:01:01.263Z,10.5
2023-05-05T01:02:02.561Z,10.4
2023-05-05T01:03:12.350Z,10.4
2023-05-05T01:04:16.549Z,10.4
2023-05-05T01:05:17.722Z,10.4
2023-05-05T01:06:18.902Z,10.4
2023-05-05T01:07:24.935Z,10.4
2023-05-05T01:08:28.511Z,10.4
2023-05-05T01:09:40.380Z,10.3
2023-05-05T01:10:41.522Z,10.3
2023-05-05T01:11:45.159Z,10.3
2023-05-05T01:12:49.187Z,10.3
2023-05-05T01:13:50.527Z,10.3
2023-05-05T01:14:54.252Z,10.3
2023-05-05T01:16:03.229Z,10.3
2023-05-05T01:17:06.474Z,10.2
2023-05-05T01:18:10.567Z,10.2
2023-05-05T01:19:14.753Z,10.2
2023-05-05T01:20:15.941Z,10.2
2023-05-05T01:21:19.914Z,10.2
2023-05-05T01:22:24.097Z,10.2
2023-05-05T01:23:34.905Z,10.2
2023-05-05T01:24:43.504Z,10.2
2023-05-05T01:25:53.528Z,10.1
2023-05-05T01:26:59.606Z,10.1
2023-05-05T01:28:02.918Z,10.1
2023-05-05T01:29:04.092Z,10.1
2023-05-05T01:30:28.875Z,10.1
2023-05-05T01:31:32.225Z,10.1
2023-05-05T01:32:38.726Z,10.1
2023-05-05T01:33:39.974Z,10.1
2023-05-05T01:34:43.347Z,10
2023-05-05T01:35:44.540Z,10
2023-05-05T01:36:51.412Z,10
2023-05-05T01:37:52.559Z,10
2023-05-05T01:38:57.179Z,10
2023-05-05T01:40:00.772Z,10
2023-05-05T01:41:04.590Z,10
2023-05-05T01:42:05.755Z,10
2023-05-05T01:43:06.918Z,10
2023-05-05T01:44:13.883Z,10
2023-05-05T01:45:17.469Z,9.9
2023-05-05T01:46:26.276Z,9.9
2023-05-05T01:47:27.430Z,9.9
2023-05-05T01:48:28.622Z,9.9
2023-05-05T01:49:30.945Z,9.9
2023-05-05T01:50:32.103Z,9.9
2023-05-05T01:51:33.243Z,9.9
2023-05-05T01:52:34.405Z,9.9
2023-05-05T01:53:35.594Z,9.9
2023-05-05T01:54:36.739Z,9.9
2023-05-05T01:55:37.903Z,9.9
2023-05-05T01:56:39.076Z,9.9
2023-05-05T01:57:40.236Z,9.9
2023-05-05T01:58:41.428Z,9.9
2023-05-05T01:59:42.570Z,9.8
2023-05-05T02:00:43.742Z,9.8
2023-05-05T02:01:44.999Z,9.8
2023-05-05T02:02:46.505Z,9.8
2023-05-05T02:03:48.262Z,9.8
2023-05-05T02:04:49.411Z,9.8
2023-05-05T02:05:50.615Z,9.8
2023-05-05T02:06:51.742Z,9.8
2023-05-05T02:07:52.914Z,9.8
2023-05-05T02:08:54.093Z,9.7
2023-05-05T02:09:55.246Z,9.7
2023-05-05T02:10:56.415Z,9.7
2023-05-05T02:11:57.590Z,9.7
2023-05-05T02:12:58.803Z,9.7
2023-05-05T02:14:00.047Z,9.7
2023-05-05T02:15:01.286Z,9.7
2023-05-05T02:16:02.526Z,9.7
2023-05-05T02:17:03.754Z,9.7
2023-05-05T02:18:04.932Z,9.7
2023-05-05T02:19:06.171Z,9.7
2023-05-05T02:20:07.459Z,9.7
2023-05-05T02:21:09.486Z,9.7
2023-05-05T02:22:10.640Z,9.7
2023-05-05T02:23:11.797Z,9.6
2023-05-05T02:24:16.050Z,9.6
2023-05-05T02:25:17.191Z,9.6
2023-05-05T02:26:18.379Z,9.6
2023-05-05T02:27:19.536Z,9.6
2023-05-05T02:28:20.702Z,9.6
2023-05-05T02:29:21.895Z,9.6
2023-05-05T02:30:23.034Z,9.6
2023-05-05T02:31:24.234Z,9.6
2023-05-05T02:32:25.421Z,9.6
2023-05-05T02:33:26.596Z,9.6
2023-05-05T02:34:27.762Z,9.6
2023-05-05T02:35:28.897Z,9.6
2023-05-05T02:36:30.112Z,9.5
2023-05-05T02:37:31.243Z,9.5
2023-05-05T02:38:32.501Z,9.5
2023-05-05T02:39:33.706Z,9.5
2023-05-05T02:40:34.852Z,9.5
2023-05-05T02:41:36.019Z,9.5
2023-05-05T02:42:37.182Z,9.5
2023-05-05T02:43:38.391Z,9.5
2023-05-05T02:44:39.607Z,9.5
2023-05-05T02:45:40.731Z,9.5
2023-05-05T02:46:46.931Z,9.5
2023-05-05T02:47:48.432Z,9.5
2023-05-05T02:48:49.641Z,9.4
2023-05-05T02:49:50.831Z,9.4
2023-05-05T02:50:51.972Z,9.4
2023-05-05T02:51:53.166Z,9.4
2023-05-05T02:52:54.303Z,9.4
2023-05-05T02:53:55.475Z,9.4
2023-05-05T02:54:56.649Z,9.4
2023-05-05T02:55:57.819Z,9.4
2023-05-05T02:56:58.972Z,9.4
2023-05-05T02:58:00.138Z,9.4
2023-05-05T02:59:01.358Z,9.4
2023-05-05T03:00:02.526Z,9.3
2023-05-05T03:01:03.697Z,9.3
2023-05-05T03:02:05.083Z,9.3
2023-05-05T03:03:06.286Z,9.3
2023-05-05T03:04:07.771Z,9.3
2023-05-05T03:05:08.968Z,9.3
2023-05-05T03:06:10.139Z,9.3
2023-05-05T03:07:11.340Z,9.3
2023-05-05T03:08:12.477Z,9.3
2023-05-05T03:09:13.645Z,9.3
2023-05-05T03:10:14.839Z,9.3
2023-05-05T03:11:15.980Z,9.3
2023-05-05T03:12:17.144Z,9.3
2023-05-05T03:13:18.319Z,9.2
2023-05-05T03:14:19.479Z,9.3
2023-05-05T03:15:20.667Z,9.2
2023-05-05T03:16:21.854Z,9.2
2023-05-05T03:17:23.041Z,9.2
2023-05-05T03:18:24.227Z,9.2
2023-05-05T03:19:25.388Z,9.2
2023-05-05T03:20:26.568Z,9.2
2023-05-05T03:21:30.596Z,9.2
2023-05-05T03:22:31.755Z,9.2
2023-05-05T03:23:32.885Z,9.2
2023-05-05T03:24:34.057Z,9.2
2023-05-05T03:25:35.231Z,9.2
2023-05-05T03:26:36.385Z,9.2
2023-05-05T03:27:37.549Z,9.2
2023-05-05T03:28:38.716Z,9.1
2023-05-05T03:29:39.886Z,9.1
2023-05-05T03:30:41.062Z,9.1
2023-05-05T03:31:42.262Z,9.1
2023-05-05T03:32:43.460Z,9.1
2023-05-05T03:33:44.636Z,9.1
2023-05-05T03:34:45.804Z,9.1
2023-05-05T03:35:47.002Z,9.1
2023-05-05T03:36:48.131Z,9.1
2023-05-05T03:37:49.323Z,9.1
2023-05-05T03:38:50.487Z,9.1
2023-05-05T03:39:51.653Z,9.1
2023-05-05T03:40:52.851Z,9.1
2023-05-05T03:41:53.986Z,9.1
2023-05-05T03:42:55.156Z,9.1
2023-05-05T03:43:56.325Z,9.1
2023-05-05T03:44:57.487Z,9.1
2023-05-05T03:45:58.686Z,9.1
2023-05-05T03:46:59.906Z,9.1
2023-05-05T03:48:01.107Z,9.1
2023-05-05T03:49:02.332Z,9.1
2023-05-05T03:50:03.486Z,9
2023-05-05T03:51:04.682Z,9
2023-05-05T03:52:05.817Z,9
2023-05-05T03:53:07.020Z,9
2023-05-05T03:54:08.187Z,9
2023-05-05T03:55:09.355Z,9
2023-05-05T03:56:10.535Z,9
2023-05-05T03:57:11.700Z,9
2023-05-05T03:58:12.860Z,9
2023-05-05T03:59:14.019Z,9
2023-05-05T04:00:15.195Z,9
2023-05-05T04:01:16.366Z,9
2023-05-05T04:02:18.726Z,9
2023-05-05T04:03:20.893Z,9.1
2023-05-05T04:04:22.658Z,9.1
2023-05-05T04:05:23.967Z,9.1
2023-05-05T04:06:25.134Z,9.1
2023-05-05T04:07:26.289Z,9.1
2023-05-05T04:08:27.482Z,9.1
2023-05-05T04:09:28.675Z,9.1
2023-05-05T04:10:29.840Z,9.1
2023-05-05T04:11:31.016Z,9.1
2023-05-05T04:12:32.179Z,9.1
2023-05-05T04:13:33.472Z,9.1
2023-05-05T04:14:34.611Z,9.1
2023-05-05T04:15:35.799Z,9.1
2023-05-05T04:16:37.127Z,9.2
2023-05-05T04:17:38.330Z,9.2
2023-05-05T04:18:39.480Z,9.2
2023-05-05T04:19:40.645Z,9.2
2023-05-05T04:20:41.835Z,9.2
2023-05-05T04:21:42.999Z,9.2
2023-05-05T04:22:44.164Z,9.2
2023-05-05T04:23:45.354Z,9.2
2023-05-05T04:24:46.496Z,9.2
2023-05-05T04:25:47.659Z,9.3
2023-05-05T04:26:48.838Z,9.3
2023-05-05T04:27:49.994Z,9.3
2023-05-05T04:28:51.152Z,9.3
2023-05-05T04:29:52.318Z,9.4
2023-05-05T04:30:53.524Z,9.4
2023-05-05T04:31:54.776Z,9.4
2023-05-05T04:32:55.937Z,9.4
2023-05-05T04:33:57.122Z,9.4
2023-05-05T04:34:58.323Z,9.4
2023-05-05T04:35:59.493Z,9.5
2023-05-05T04:37:00.683Z,9.5
2023-05-05T04:38:01.821Z,9.5
2023-05-05T04:39:03.071Z,9.5
2023-05-05T04:40:04.447Z,9.5
2023-05-05T04:41:05.655Z,9.5
2023-05-05T04:42:06.841Z,9.5
2023-05-05T04:43:07.989Z,9.5
2023-05-05T04:44:09.159Z,9.5
2023-05-05T04:45:10.342Z,9.6
2023-05-05T04:46:11.501Z,9.6
2023-05-05T04:47:14.637Z,9.6
2023-05-05T04:48:15.955Z,9.6
2023-05-05T04:49:17.119Z,9.6
2023-05-05T04:50:18.290Z,9.6
2023-05-05T04:51:19.456Z,9.6
2023-05-05T04:52:20.635Z,9.6
2023-05-05T04:53:21.791Z,9.7
2023-05-05T04:54:23.085Z,9.7
2023-05-05T04:55:26.932Z,9.7
2023-05-05T04:56:28.093Z,9.7
2023-05-05T04:57:29.255Z,9.7
2023-05-05T04:58:30.419Z,9.7
2023-05-05T04:59:31.583Z,9.7
2023-05-05T05:00:32.756Z,9.7
2023-05-05T05:01:34.779Z,9.8
2023-05-05T05:02:39.364Z,9.8
2023-05-05T05:03:43.342Z,9.8
2023-05-05T05:04:45.174Z,9.8
2023-05-05T05:05:46.339Z,9.8
2023-05-05T05:06:47.925Z,9.8
2023-05-05T05:07:49.069Z,9.8
2023-05-05T05:08:50.267Z,9.9
2023-05-05T05:09:51.478Z,9.9
2023-05-05T05:10:52.609Z,9.9
2023-05-05T05:11:53.788Z,9.9
2023-05-05T05:12:54.958Z,9.9
2023-05-05T05:13:56.139Z,9.9
2023-05-05T05:14:57.303Z,9.9
2023-05-05T05:15:58.492Z,10
2023-05-05T05:16:59.675Z,10
2023-05-05T05:18:00.881Z,10
2023-05-05T05:19:02.177Z,10
2023-05-05T05:20:03.482Z,10
2023-05-05T05:21:07.468Z,10
2023-05-05T05:22:08.641Z,10
2023-05-05T05:23:09.804Z,10
2023-05-05T05:24:10.969Z,10
2023-05-05T05:25:12.161Z,10
2023-05-05T05:26:13.336Z,10
2023-05-05T05:27:14.544Z,10
2023-05-05T05:28:15.702Z,10
2023-05-05T05:29:16.871Z,10.1
2023-05-05T05:30:18.037Z,10.1
2023-05-05T05:31:19.206Z,10.1
2023-05-05T05:32:23.431Z,10.1
2023-05-05T05:33:24.600Z,10.1
2023-05-05T05:34:25.762Z,10.1
2023-05-05T05:35:26.951Z,10.1
2023-05-05T05:36:28.395Z,10.1
2023-05-05T05:37:32.363Z,10.2
2023-05-05T05:38:33.524Z,10.2
2023-05-05T05:39:34.692Z,10.2
2023-05-05T05:40:35.880Z,10.2
2023-05-05T05:41:37.027Z,10.2
2023-05-05T05:42:38.224Z,10.2
2023-05-05T05:43:39.364Z,10.3
2023-05-05T05:44:40.529Z,10.3
2023-05-05T05:45:41.715Z,10.3
2023-05-05T05:46:42.961Z,10.3
2023-05-05T05:47:44.366Z,10.3
2023-05-05T05:48:45.538Z,10.3
2023-05-05T05:49:46.701Z,10.3
2023-05-05T05:50:47.879Z,10.3
2023-05-05T05:51:49.041Z,10.3
2023-05-05T05:52:50.210Z,10.4
2023-05-05T05:53:51.369Z,10.4
2023-05-05T05:54:52.532Z,10.4
2023-05-05T05:55:53.723Z,10.4
2023-05-05T05:56:54.868Z,10.4
2023-05-05T05:57:56.054Z,10.4
2023-05-05T05:58:57.203Z,10.4
2023-05-05T05:59:59.745Z,10.5
2023-05-05T06:01:03.451Z,10.5
2023-05-05T06:02:04.630Z,10.5
2023-05-05T06:03:05.902Z,10.5
2023-05-05T06:04:07.753Z,10.5
2023-05-05T06:05:09.261Z,10.5
2023-05-05T06:06:10.422Z,10.6
2023-05-05T06:07:11.944Z,10.6
2023-05-05T06:08:13.066Z,10.6
2023-05-05T06:09:14.235Z,10.6
2023-05-05T06:10:27.129Z,10.6
2023-05-05T06:11:29.550Z,10.7
2023-05-05T06:12:30.836Z,10.7
2023-05-05T06:13:32.084Z,10.7
2023-05-05T06:14:33.245Z,10.8
2023-05-05T06:15:34.410Z,10.8
2023-05-05T06:16:35.840Z,10.8
2023-05-05T06:17:36.995Z,10.9
2023-05-05T06:18:38.256Z,10.9
2023-05-05T06:19:39.420Z,11
2023-05-05T06:20:40.580Z,11
2023-05-05T06:21:41.740Z,11.1
2023-05-05T06:22:42.927Z,11.1
2023-05-05T06:23:44.080Z,11.2
2023-05-05T06:24:45.241Z,11.2
2023-05-05T06:25:46.407Z,11.3
2023-05-05T06:26:47.602Z,11.3
2023-05-05T06:27:48.747Z,11.4
2023-05-05T06:28:49.902Z,11.4
2023-05-05T06:29:51.074Z,11.5
2023-05-05T06:30:52.239Z,11.5
2023-05-05T06:31:53.446Z,11.6
2023-05-05T06:32:55.055Z,11.6
2023-05-05T06:33:56.229Z,11.7
2023-05-05T06:34:57.397Z,11.7
2023-05-05T06:35:58.564Z,11.7
2023-05-05T06:37:02.427Z,11.8
2023-05-05T06:38:06.389Z,11.8
2023-05-05T06:39:07.542Z,11.9
2023-05-05T06:40:08.824Z,11.9
2023-05-05T06:41:10.705Z,12
2023-05-05T06:42:11.887Z,12
2023-05-05T06:43:13.043Z,12.1
2023-05-05T06:44:14.202Z,12.1
2023-05-05T06:45:15.376Z,12.2
2023-05-05T06:46:16.564Z,12.2
2023-05-05T06:47:18.253Z,12.3
2023-05-05T06:48:19.424Z,12.3
2023-05-05T06:49:20.588Z,12.4
2023-05-05T06:50:21.765Z,12.4
2023-05-05T06:51:22.934Z,12.5
2023-05-05T06:52:24.090Z,12.6
2023-05-05T06:53:25.271Z,12.6
2023-05-05T06:54:26.432Z,12.7
2023-05-05T06:55:27.591Z,12.8
2023-05-05T06:56:28.756Z,12.9
2023-05-05T06:57:30.087Z,12.9
2023-05-05T06:58:31.457Z,13
2023-05-05T06:59:32.616Z,13.1
2023-05-05T07:00:33.843Z,13.2
2023-05-05T07:01:35.050Z,13.3
2023-05-05T07:02:36.219Z,13.4
2023-05-05T07:03:37.401Z,13.5
2023-05-05T07:04:38.610Z,13.6
2023-05-05T07:05:39.779Z,13.7
2023-05-05T07:06:40.944Z,13.8
2023-05-05T07:07:42.379Z,14
2023-05-05T07:08:43.506Z,14
2023-05-05T07:09:44.675Z,14.1
2023-05-05T07:10:45.843Z,14.2
2023-05-05T07:11:47.010Z,14.2
2023-05-05T07:12:48.233Z,14.2
2023-05-05T07:13:50.154Z,14.2
2023-05-05T07:14:51.421Z,14.3
2023-05-05T07:15:52.567Z,14.4
2023-05-05T07:16:53.775Z,14.6
2023-05-05T07:17:58.537Z,14.8
2023-05-05T07:19:00.427Z,14.9
2023-05-05T07:20:01.587Z,15
2023-05-05T07:21:02.776Z,15.2
2023-05-05T07:22:03.954Z,15.3
2023-05-05T07:23:05.155Z,15.5
2023-05-05T07:24:06.507Z,15.6
2023-05-05T07:25:07.688Z,15.8
2023-05-05T07:26:08.841Z,15.9
2023-05-05T07:27:10.009Z,16.1
2023-05-05T07:28:11.342Z,16.2
2023-05-05T07:29:12.688Z,16.4
2023-05-05T07:30:18.628Z,16.5
2023-05-05T07:31:21.709Z,16.5
2023-05-05T07:32:22.967Z,16.6
2023-05-05T07:33:24.311Z,16.8
2023-05-05T07:34:25.468Z,17
2023-05-05T07:35:26.663Z,17.2
2023-05-05T07:36:27.894Z,17.4
2023-05-05T07:37:29.055Z,17.5
2023-05-05T07:38:30.311Z,17.7
2023-05-05T07:39:34.440Z,17.9
2023-05-05T07:40:41.334Z,18.1
2023-05-05T07:41:42.521Z,18.3
2023-05-05T07:42:43.670Z,18.4
2023-05-05T07:43:44.990Z,18.6
2023-05-05T07:44:46.373Z,18.8
2023-05-05T09:04:09.557Z,25.4
2023-05-05T09:05:21.959Z,25.4
2023-05-05T09:06:36.257Z,25.5
2023-05-05T09:07:47.977Z,25.7
2023-05-05T09:08:58.251Z,25.8
2023-05-05T09:10:32.419Z,25.8
2023-05-05T09:11:48.833Z,26
2023-05-05T09:12:55.659Z,26.3
2023-05-05T09:14:02.152Z,26.5
2023-05-05T09:15:13.109Z,26.7
2023-05-05T09:16:34.584Z,26.9
2023-05-05T09:17:44.916Z,27.1
2023-05-05T09:18:54.340Z,27.2
2023-05-05T09:21:34.188Z,27.4
2023-05-05T09:23:48.062Z,27.8
2023-05-05T09:26:14.421Z,28.2
2023-05-05T09:28:13.509Z,28.4
2023-05-05T09:30:26.899Z,28.7
2023-05-05T09:32:47.442Z,29.1
2023-05-05T09:33:51.447Z,29.2
2023-05-05T09:35:24.764Z,29.4
2023-05-05T09:38:06.725Z,29.7
2023-05-05T09:39:43.034Z,29.9
2023-05-05T09:40:51.913Z,29.9
2023-05-05T09:42:16.741Z,30
2023-05-05T09:43:29.671Z,30.2
2023-05-05T09:49:10.645Z,30.5
2023-05-05T09:50:45.392Z,30.8
2023-05-05T09:52:52.780Z,31.2
2023-05-05T09:54:02.405Z,31.2
2023-05-05T09:55:29.198Z,31
2023-05-05T09:58:24.067Z,31.3
2023-05-05T09:59:44.825Z,31.4
2023-05-05T10:01:09.934Z,31.6
2023-05-05T10:02:14.190Z,31.8
2023-05-05T10:03:28.602Z,32
2023-05-05T10:05:36.206Z,31.9
2023-05-05T10:07:33.101Z,32
2023-05-05T10:10:51.594Z,32.3
2023-05-05T10:52:56.190Z,32.1
2023-05-05T10:54:09.768Z,31.9
2023-05-05T10:55:16.321Z,31.8
2023-05-05T10:56:25.059Z,31.6
2023-05-05T10:57:31.329Z,31.5
2023-05-05T10:58:41.056Z,31.3
2023-05-05T11:01:17.875Z,31
2023-05-05T11:02:21.412Z,30.9
2023-05-05T11:03:33.314Z,30.7
2023-05-05T11:04:51.030Z,30.6
2023-05-05T11:05:52.314Z,30.4
2023-05-05T11:06:58.533Z,30.3
2023-05-05T11:08:02.067Z,30.2
2023-05-05T11:09:28.892Z,30
2023-05-05T11:10:32.601Z,29.8
2023-05-05T11:11:52.018Z,29.7
2023-05-05T11:12:56.286Z,29.5
2023-05-05T11:13:59.858Z,29.4
2023-05-05T11:15:03.833Z,29.2
2023-05-05T11:16:07.670Z,29.1
2023-05-05T11:17:14.425Z,29
2023-05-05T11:18:18.597Z,28.8
2023-05-05T11:19:22.756Z,28.7
2023-05-05T11:20:31.799Z,28.5
2023-05-05T11:21:32.992Z,28.4
2023-05-05T11:22:36.949Z,28.3
2023-05-05T11:23:41.154Z,28.1
2023-05-05T11:24:47.880Z,28
2023-05-05T11:25:54.569Z,27.9
2023-05-05T11:26:55.899Z,27.8
2023-05-05T11:27:57.143Z,27.7
2023-05-05T11:29:01.023Z,27.6
2023-05-05T11:30:10.993Z,27.5
2023-05-05T11:31:13.143Z,27.4
2023-05-05T11:32:14.392Z,27.3
2023-05-05T11:33:15.613Z,27.2
2023-05-05T11:34:28.113Z,27.2
2023-05-05T11:35:29.314Z,27.1
2023-05-05T11:36:30.474Z,27
2023-05-05T11:37:31.647Z,26.9
2023-05-05T11:38:32.844Z,26.8
2023-05-05T11:39:54.481Z,26.8
2023-05-05T11:40:55.696Z,26.7
2023-05-05T11:41:56.916Z,26.6
2023-05-05T11:42:58.076Z,26.5
2023-05-05T11:43:59.250Z,26.4
2023-05-05T11:45:00.405Z,26.3
2023-05-05T11:46:01.619Z,26.3
2023-05-05T11:47:02.844Z,26.2
2023-05-05T11:48:04.045Z,26.1
2023-05-05T11:49:05.254Z,26
2023-05-05T11:50:06.516Z,26
2023-05-05T11:51:08.798Z,25.9
2023-05-05T11:52:09.969Z,25.8
2023-05-05T11:53:11.133Z,25.7
2023-05-05T11:54:12.341Z,25.6
2023-05-05T11:55:13.614Z,25.5
2023-05-05T11:56:14.792Z,25.4
2023-05-05T11:57:16.034Z,25.4
2023-05-05T11:58:17.250Z,25.3
2023-05-05T11:59:18.437Z,25.2
2023-05-05T12:00:19.605Z,25.1
2023-05-05T12:01:20.771Z,25
2023-05-05T12:02:21.937Z,24.9
2023-05-05T12:03:23.304Z,24.9
2023-05-05T12:04:24.924Z,24.8
2023-05-05T12:05:26.121Z,24.7
2023-05-05T12:06:27.327Z,24.6
2023-05-05T12:07:28.496Z,24.6
2023-05-05T12:08:29.671Z,24.5
2023-05-05T12:09:30.841Z,24.4
2023-05-05T12:10:32.573Z,24.4
2023-05-05T12:11:33.714Z,24.3
2023-05-05T12:12:35.281Z,24.2
2023-05-05T12:13:37.074Z,24.2
2023-05-05T12:14:38.721Z,24.1
2023-05-05T12:15:39.965Z,24.1
2023-05-05T12:16:41.233Z,24
2023-05-05T12:17:42.988Z,24
2023-05-05T12:18:44.362Z,23.9
2023-05-05T12:19:45.552Z,23.9
2023-05-05T12:20:46.686Z,23.8
2023-05-05T12:21:47.951Z,23.8
2023-05-05T12:22:49.098Z,23.8
2023-05-05T12:23:50.409Z,23.8
2023-05-05T12:24:52.798Z,23.8
2023-05-05T12:25:56.074Z,23.8
2023-05-05T12:26:57.201Z,23.8
2023-05-05T12:27:58.430Z,23.8
2023-05-05T12:28:59.669Z,23.8
2023-05-05T12:30:00.937Z,23.8
2023-05-05T12:31:02.098Z,23.8
2023-05-05T12:32:03.301Z,23.8
2023-05-05T12:33:04.809Z,23.8
2023-05-05T12:34:06.351Z,23.9
2023-05-05T12:35:07.553Z,23.9
2023-05-05T12:36:11.677Z,24
2023-05-05T12:37:12.863Z,24
2023-05-05T12:38:14.033Z,24.1
2023-05-05T12:39:15.203Z,24.1
2023-05-05T12:40:16.521Z,24.2
2023-05-05T12:41:17.686Z,24.3
2023-05-05T12:42:18.902Z,24.3
2023-05-05T12:43:21.484Z,24.4
2023-05-05T12:44:22.807Z,24.5
2023-05-05T12:45:24.119Z,24.6
2023-05-05T12:46:25.489Z,24.7
2023-05-05T12:47:27.261Z,24.7
2023-05-05T12:48:31.461Z,24.8
2023-05-05T12:49:32.621Z,24.9
2023-05-05T12:50:33.822Z,25.1
2023-05-05T12:51:34.961Z,25.3
2023-05-05T12:52:36.123Z,25.4
2023-05-05T12:53:37.329Z,25.6
2023-05-05T12:54:38.495Z,25.7
2023-05-05T12:55:39.689Z,25.8
2023-05-05T12:56:41.033Z,25.9
2023-05-05T12:57:42.166Z,26
2023-05-05T12:58:43.541Z,26.1
2023-05-05T12:59:47.378Z,26.2
2023-05-05T13:00:48.813Z,26.3
2023-05-05T13:01:50.288Z,26.4
2023-05-05T13:02:55.101Z,26.5
2023-05-05T13:03:56.626Z,26.6
2023-05-05T13:05:03.138Z,26.7
2023-05-05T13:06:07.627Z,26.7
2023-05-05T13:07:29.443Z,26.7
2023-05-05T13:08:30.731Z,26.8
2023-05-05T13:09:32.080Z,26.8
2023-05-05T13:10:33.264Z,26.9
2023-05-05T13:11:34.492Z,26.9
2023-05-05T13:12:43.091Z,27
2023-05-05T13:13:50.778Z,27
2023-05-05T13:54:36.470Z,26.8
2023-05-05T13:55:37.810Z,26.9
2023-05-05T13:56:38.973Z,26.9
2023-05-05T13:57:40.204Z,26.9
2023-05-05T13:58:41.382Z,27
2023-05-05T13:59:42.565Z,27
2023-05-05T14:00:43.797Z,27.1
2023-05-05T14:01:44.988Z,27.1
2023-05-05T14:02:46.210Z,27.1
2023-05-05T14:03:47.536Z,27.2
2023-05-05T14:04:49.056Z,27.2
2023-05-05T14:05:50.236Z,27.2
2023-05-05T14:06:51.374Z,27.2
2023-05-05T14:07:52.561Z,27.2
2023-05-05T14:08:53.734Z,27.3
2023-05-05T14:09:55.146Z,27.3
2023-05-05T14:10:56.334Z,27.3
2023-05-05T14:11:57.532Z,27.3
2023-05-05T14:12:58.701Z,27.4
2023-05-05T14:14:00.006Z,27.4
2023-05-05T14:15:01.184Z,27.4
2023-05-05T14:16:02.372Z,27.4
2023-05-05T14:17:03.614Z,27.4
2023-05-05T14:18:07.585Z,27.4
2023-05-05T14:19:08.931Z,27.3
2023-05-05T14:20:10.087Z,27.3
2023-05-05T14:21:14.377Z,27.3
2023-05-05T14:22:15.519Z,27.3
2023-05-05T14:23:16.686Z,27.3
2023-05-05T14:24:17.881Z,27.2
2023-05-05T14:25:19.223Z,27.2
2023-05-05T14:26:20.606Z,27.2
2023-05-05T14:27:21.787Z,27.1
2023-05-05T14:28:22.997Z,27
2023-05-05T14:29:24.156Z,27
2023-05-05T14:30:25.306Z,26.9
2023-05-05T14:31:26.463Z,26.8
2023-05-05T14:32:27.840Z,26.8
2023-05-05T14:33:29.009Z,26.7
2023-05-05T14:34:30.346Z,26.6
2023-05-05T14:35:31.766Z,26.6
2023-05-05T14:36:32.930Z,26.6
2023-05-05T14:37:34.098Z,26.5
2023-05-05T14:38:35.288Z,26.5
2023-05-05T14:39:36.751Z,26.4
2023-05-05T14:40:38.105Z,26.3
2023-05-05T14:41:39.416Z,26.3
2023-05-05T14:42:40.577Z,26.2
2023-05-05T14:43:41.747Z,26.2
2023-05-05T14:44:42.960Z,26.1
2023-05-05T14:45:44.126Z,26
2023-05-05T14:46:46.213Z,26
2023-05-05T14:47:51.540Z,25.9
2023-05-05T14:48:52.718Z,25.8
2023-05-05T14:49:53.893Z,25.8
2023-05-05T14:50:55.035Z,25.7
2023-05-05T14:51:56.825Z,25.7
2023-05-05T14:52:58.133Z,25.6
2023-05-05T14:53:59.353Z,25.5
2023-05-05T14:55:00.607Z,25.5
2023-05-05T14:56:02.066Z,25.4
2023-05-05T14:57:03.523Z,25.4
2023-05-05T14:58:04.687Z,25.3
2023-05-05T14:59:05.858Z,25.2
2023-05-05T15:00:07.069Z,25.2
2023-05-05T15:01:08.225Z,25.1
2023-05-05T15:02:09.381Z,25.1
2023-05-05T15:03:10.621Z,25
2023-05-05T15:04:12.063Z,24.9
2023-05-05T15:05:13.273Z,24.9
2023-05-05T15:06:14.414Z,24.8
2023-05-05T15:07:15.581Z,24.8
2023-05-05T15:08:16.750Z,24.7
2023-05-05T15:09:17.912Z,24.6
2023-05-05T15:10:21.210Z,24.6
2023-05-05T15:11:23.240Z,24.5
2023-05-05T15:12:24.628Z,24.5
2023-05-05T15:13:25.792Z,24.4
2023-05-05T15:14:26.956Z,24.3
2023-05-05T15:15:30.740Z,24.3
2023-05-05T15:16:35.280Z,24.2
2023-05-05T15:17:36.790Z,24.2
2023-05-05T15:18:38.127Z,24.1
2023-05-05T15:19:39.337Z,24.1
2023-05-05T15:20:40.529Z,24
2023-05-05T15:21:41.671Z,24
2023-05-05T15:22:42.893Z,24
2023-05-05T15:23:44.142Z,23.9
2023-05-05T15:24:48.343Z,23.9
2023-05-05T15:25:49.498Z,23.8
2023-05-05T15:26:50.827Z,23.8
2023-05-05T15:27:52.370Z,23.8
2023-05-05T15:28:53.759Z,23.8
2023-05-05T15:29:54.935Z,23.7
2023-05-05T15:30:56.109Z,23.7
2023-05-05T15:31:57.302Z,23.7
2023-05-05T15:32:58.702Z,23.7
2023-05-05T15:33:59.914Z,23.7
2023-05-05T15:35:01.103Z,23.7
2023-05-05T15:36:02.429Z,23.7
2023-05-05T15:37:03.564Z,23.7
2023-05-05T15:38:04.758Z,23.7
2023-05-05T15:39:05.910Z,23.6
2023-05-05T15:40:07.078Z,23.7
2023-05-05T15:41:08.279Z,23.6
2023-05-05T15:42:09.568Z,23.7
2023-05-05T15:43:10.772Z,23.6
2023-05-05T15:44:11.927Z,23.6
2023-05-05T15:45:13.106Z,23.6
2023-05-05T15:46:14.302Z,23.7
2023-05-05T15:47:15.505Z,23.7
2023-05-05T15:48:16.906Z,23.6
2023-05-05T15:49:18.084Z,23.6
2023-05-05T15:50:19.225Z,23.6
2023-05-05T15:51:20.415Z,23.6
2023-05-05T15:52:21.556Z,23.6
2023-05-05T15:53:22.726Z,23.6
2023-05-05T15:54:23.889Z,23.6
2023-05-05T15:55:25.065Z,23.6
2023-05-05T15:56:26.242Z,23.6
2023-05-05T15:57:27.657Z,23.6
2023-05-05T15:58:29.033Z,23.6
2023-05-05T15:59:30.205Z,23.6
2023-05-05T16:00:31.376Z,23.6
2023-05-05T16:01:32.569Z,23.6
2023-05-05T16:02:33.771Z,23.6
2023-05-05T16:03:35.192Z,23.6
2023-05-05T16:04:36.395Z,23.5
2023-05-05T16:05:37.554Z,23.5
2023-05-05T16:06:38.748Z,23.5
2023-05-05T16:07:39.940Z,23.5
2023-05-05T16:08:41.157Z,23.5
2023-05-05T16:09:42.318Z,23.5
2023-05-05T16:10:43.486Z,23.4
2023-05-05T16:11:44.907Z,23.4
2023-05-05T16:12:46.336Z,23.4
2023-05-05T16:13:47.878Z,23.4
2023-05-05T16:14:49.042Z,23.3
2023-05-05T16:15:50.212Z,23.3
2023-05-05T16:16:51.409Z,23.3
2023-05-05T16:17:52.634Z,23.3
2023-05-05T16:18:53.805Z,23.2
2023-05-05T16:19:54.968Z,23.2
2023-05-05T16:20:56.127Z,23.2
2023-05-05T16:21:57.320Z,23.2
2023-05-05T16:22:58.461Z,23.1
2023-05-05T16:24:02.060Z,23.1
2023-05-05T16:25:06.081Z,23.1
2023-05-05T16:26:07.983Z,23
2023-05-05T16:27:09.241Z,23
2023-05-05T16:28:10.805Z,23
2023-05-05T16:29:12.071Z,22.9
2023-05-05T16:30:13.236Z,22.9
2023-05-05T16:31:14.424Z,22.9
2023-05-05T16:32:15.619Z,22.8
2023-05-05T16:33:19.660Z,22.8
2023-05-05T16:34:20.823Z,22.8
2023-05-05T16:35:21.990Z,22.7
2023-05-05T16:36:23.153Z,22.7
2023-05-05T16:37:24.336Z,22.6
2023-05-05T16:38:25.559Z,22.6
2023-05-05T16:39:26.720Z,22.6
2023-05-05T16:40:27.882Z,22.5
2023-05-05T16:41:29.106Z,22.5
2023-05-05T16:42:30.638Z,22.5
2023-05-05T16:43:31.984Z,22.4
2023-05-05T16:44:33.184Z,22.4
2023-05-05T16:45:34.350Z,22.3
2023-05-05T16:46:35.585Z,22.3
2023-05-05T16:47:36.816Z,22.3
2023-05-05T16:48:38.243Z,22.2
2023-05-05T16:49:39.409Z,22.2
2023-05-05T16:50:40.575Z,22.1
2023-05-05T16:51:41.739Z,22.1
2023-05-05T16:52:42.935Z,22.1
2023-05-05T16:53:44.075Z,22
2023-05-05T16:54:46.080Z,22
2023-05-05T16:55:47.237Z,21.9
2023-05-05T16:56:48.401Z,21.9
2023-05-05T16:57:49.659Z,21.9
2023-05-05T16:58:50.963Z,21.8
2023-05-05T16:59:52.154Z,21.8
2023-05-05T17:00:53.324Z,21.7
2023-05-05T17:01:54.536Z,21.7
2023-05-05T17:02:55.790Z,21.6
2023-05-05T17:03:57.030Z,21.6
2023-05-05T17:04:58.200Z,21.5
2023-05-05T17:05:59.571Z,21.5
2023-05-05T17:07:01.204Z,21.4
2023-05-05T17:08:02.396Z,21.4
2023-05-05T17:09:03.544Z,21.4